Main page
METAR-TAF:

METAR-TAF

Airports :

Curaçao International Airport

Curaçao, Netherlands Antilles

latitude: 12-12N, longitude: 068-58W, elevation: 9 m

Current weather observation

The report was made 28 minutes ago, at 16:00 UTC
Wind 11 kt from the East, varying between Northeast and Southeast
Temperature 28°C
Humidity 70%
Pressure 1014 hPa
Visibility: 1800 m
Broken clouds at a height of 2300 ft
light rain showers

METAR: TNCC 091600Z 09011KT 040V140 1800 -SHRA BKN023 28/22 Q1014 TEMPO 08020G35KT 3000 SQ SHRA SCT016TCU BKN030

Time: 12:28 (16:28 UTC)

Forecast

The report was made 5 hours and 13 minutes ago, at 11:15 UTC
Forecast valid from 09 at 12 UTC to 10 at 12 UTC
Wind 13 kt from the East
Visibility 10 km or more
Scattered clouds at a height of 2200 ft
Temporary
from 09 at 12 UTC to 10 at 12 UTC
Broken clouds at a height of 1500 ft

TAF: TNCC 091115Z 0912/1012 08013KT 9999 SCT022 TEMPO 0912/1012 BKN015

Weather observations and forecasts of more than 4000 airports (METAR and TAF reports).

The available stations are represented by yellow and red dots on the map.

Hover mouse over dot to see the name of the station.

Then click to see weather observations and forecasts.

To change the map : click on the green buttons with a black cross to zoom in, on the green button with a dash to zoom out, or on the green arrows for adjacent maps.


METAR-TAF: